createdAt,value
2022-08-27T00:00:33.483Z,8.55
2022-08-27T00:03:00.314Z,5.88
2022-08-27T00:05:27.353Z,7.80
2022-08-27T00:07:54.352Z,6.78
2022-08-27T00:10:24.860Z,5.18
2022-08-27T00:12:51.968Z,6.38
2022-08-27T00:15:19.701Z,6.22
2022-08-27T00:17:46.915Z,6.53
2022-08-27T00:20:16.755Z,6.53
2022-08-27T00:22:43.547Z,7.13
2022-08-27T00:25:11.339Z,6.85
2022-08-27T00:27:38.189Z,6.35
2022-08-27T00:30:08.534Z,6.25
2022-08-27T00:32:35.351Z,7.15
2022-08-27T00:35:02.218Z,7.53
2022-08-27T00:37:28.886Z,7.85
2022-08-27T00:39:55.742Z,6.95
2022-08-27T00:42:22.837Z,8.77
2022-08-27T00:44:49.642Z,7.72
2022-08-27T00:47:22.787Z,7.10
2022-08-27T00:50:07.417Z,6.97
2022-08-27T00:52:41.705Z,6.25
2022-08-27T00:55:22.442Z,6.20
2022-08-27T00:58:05.754Z,9.65
2022-08-27T01:00:32.848Z,7.40
2022-08-27T01:02:59.562Z,6.82
2022-08-27T01:05:27.894Z,6.22
2022-08-27T01:07:59.055Z,8.95
2022-08-27T01:10:28.004Z,8.20
2022-08-27T01:12:56.377Z,6.28
2022-08-27T01:15:26.814Z,6.65
2022-08-27T01:17:54.578Z,7.28
2022-08-27T01:20:35.395Z,5.80
2022-08-27T01:23:13.947Z,5.75
2022-08-27T01:25:45.378Z,6.45
2022-08-27T01:28:13.580Z,6.53
2022-08-27T01:30:40.505Z,5.55
2022-08-27T01:33:14.681Z,6.60
2022-08-27T01:35:43.765Z,7.65
2022-08-27T01:38:18.939Z,5.68
2022-08-27T01:40:59.199Z,5.00
2022-08-27T01:43:27.366Z,5.43
2022-08-27T01:45:54.079Z,5.45
2022-08-27T01:48:21.884Z,6.32
2022-08-27T01:50:49.271Z,6.88
2022-08-27T01:53:19.271Z,5.90
2022-08-27T01:55:48.443Z,6.45
2022-08-27T01:58:16.815Z,4.25
2022-08-27T02:00:46.717Z,6.35
2022-08-27T02:03:13.523Z,4.25
2022-08-27T02:05:45.177Z,5.07
2022-08-27T02:08:16.611Z,5.00
2022-08-27T02:10:45.002Z,4.97
2022-08-27T02:13:13.246Z,8.63
2022-08-27T02:15:42.063Z,5.00
2022-08-27T02:18:10.746Z,5.97
2022-08-27T02:20:37.562Z,5.88
2022-08-27T02:23:05.064Z,5.50
2022-08-27T02:59:05.004Z,4.78
2022-08-27T03:01:31.730Z,5.05
2022-08-27T03:03:58.514Z,4.07
2022-08-27T03:06:25.219Z,4.80
2022-08-27T03:08:52.623Z,6.43
2022-08-27T03:11:22.951Z,4.75
2022-08-27T03:13:50.615Z,6.18
2022-08-27T03:16:17.567Z,6.22
2022-08-27T03:18:44.978Z,5.18
2022-08-27T03:21:19.384Z,4.43
2022-08-27T03:23:46.202Z,4.57
2022-08-27T03:26:13.021Z,4.10
2022-08-27T03:28:39.844Z,4.28
2022-08-27T03:31:13.228Z,4.63
2022-08-27T03:33:41.743Z,5.20
2022-08-27T03:36:09.140Z,4.28
2022-08-27T03:38:36.373Z,4.47
2022-08-27T03:41:03.787Z,5.68
2022-08-27T03:43:30.603Z,3.40
2022-08-27T03:46:01.674Z,4.82
2022-08-27T03:48:32.601Z,5.07
2022-08-27T03:50:59.595Z,5.10
2022-08-27T03:53:26.470Z,4.60
2022-08-27T03:55:53.200Z,4.22
2022-08-27T03:58:20.170Z,5.80
2022-08-27T04:00:47.321Z,5.45
2022-08-27T04:03:14.916Z,4.97
2022-08-27T04:05:44.751Z,4.68
2022-08-27T04:08:13.247Z,4.75
2022-08-27T04:10:41.247Z,4.10
2022-08-27T04:13:08.090Z,4.32
2022-08-27T04:15:34.792Z,6.43
2022-08-27T04:18:07.521Z,3.78
2022-08-27T04:20:35.811Z,4.75
2022-08-27T04:23:03.370Z,5.03
2022-08-27T04:25:30.079Z,6.47
2022-08-27T04:27:57.394Z,4.28
2022-08-27T04:30:24.280Z,4.78
2022-08-27T04:32:51.140Z,5.25
2022-08-27T04:35:18.040Z,5.03
2022-08-27T04:37:44.747Z,3.65
2022-08-27T04:40:14.741Z,4.30
2022-08-27T04:42:42.245Z,3.40
2022-08-27T04:45:09.505Z,4.60
2022-08-27T04:47:36.782Z,3.78
2022-08-27T04:50:05.647Z,5.28
2022-08-27T04:52:32.682Z,5.15
2022-08-27T04:55:00.108Z,5.30
2022-08-27T04:57:27.743Z,4.50
2022-08-27T04:59:54.807Z,4.38
2022-08-27T05:02:21.506Z,5.50
2022-08-27T05:04:48.235Z,6.93
2022-08-27T05:07:14.994Z,4.85
2022-08-27T05:09:42.221Z,4.07
2022-08-27T05:12:09.157Z,5.53
2022-08-27T05:14:35.936Z,4.30
2022-08-27T05:17:03.438Z,4.97
2022-08-27T05:19:30.223Z,5.53
2022-08-27T05:21:57.195Z,4.03
2022-08-27T05:24:24.218Z,5.55
2022-08-27T05:26:50.996Z,4.30
2022-08-27T05:29:17.866Z,4.50
2022-08-27T05:31:44.731Z,4.85
2022-08-27T05:34:22.342Z,4.68
2022-08-27T05:36:54.192Z,7.38
2022-08-27T05:39:21.154Z,5.22
2022-08-27T05:41:47.947Z,7.22
2022-08-27T05:44:40.210Z,7.53
2022-08-27T05:47:03.689Z,5.82
2022-08-27T05:49:31.766Z,4.18
2022-08-27T05:51:58.481Z,5.00
2022-08-27T05:54:25.220Z,5.68
2022-08-27T05:56:51.899Z,6.07
2022-08-27T05:59:37.520Z,6.05
2022-08-27T06:02:05.996Z,5.07
2022-08-27T06:04:32.950Z,4.93
2022-08-27T06:06:59.642Z,5.35
2022-08-27T06:09:29.203Z,4.80
2022-08-27T06:11:57.738Z,5.38
2022-08-27T06:14:24.716Z,6.95
2022-08-27T06:16:51.809Z,9.55
2022-08-27T06:19:18.680Z,7.40
2022-08-27T06:21:45.407Z,6.43
2022-08-27T06:24:13.331Z,6.10
2022-08-27T06:26:44.622Z,5.97
2022-08-27T06:29:12.529Z,7.65
2022-08-27T06:31:40.510Z,5.22
2022-08-27T06:34:08.947Z,6.35
2022-08-27T06:36:41.139Z,5.68
2022-08-27T06:39:13.187Z,6.55
2022-08-27T06:41:42.251Z,7.65
2022-08-27T06:44:09.176Z,7.47
2022-08-27T06:46:36.651Z,6.20
2022-08-27T06:49:03.604Z,5.80
2022-08-27T06:51:33.055Z,5.90
2022-08-27T06:54:03.102Z,5.43
2022-08-27T06:56:31.144Z,6.28
2022-08-27T06:59:00.694Z,7.32
2022-08-27T07:01:31.171Z,6.63
2022-08-27T07:04:04.082Z,7.80
2022-08-27T07:06:33.415Z,6.15
2022-08-27T07:09:00.948Z,8.70
2022-08-27T07:11:29.199Z,7.22
2022-08-27T07:13:56.169Z,6.75
2022-08-27T07:16:25.104Z,8.50
2022-08-27T07:18:55.499Z,8.75
2022-08-27T07:21:23.078Z,8.63
2022-08-27T07:23:52.027Z,9.23
2022-08-27T07:26:19.765Z,9.60
2022-08-27T07:28:47.575Z,9.20
2022-08-27T07:31:18.047Z,9.18
2022-08-27T07:33:50.679Z,6.75
2022-08-27T07:36:19.559Z,8.95
2022-08-27T07:38:57.066Z,9.43
2022-08-27T07:41:30.843Z,8.13
2022-08-27T07:44:19.024Z,9.88
2022-08-27T07:46:48.418Z,10.82
2022-08-27T07:49:17.481Z,8.63
2022-08-27T07:51:45.712Z,10.30
2022-08-27T07:54:12.914Z,8.50
2022-08-27T07:56:40.203Z,10.63
2022-08-27T07:59:07.034Z,7.88
2022-08-27T08:01:33.948Z,10.05
2022-08-27T08:04:00.767Z,9.15
2022-08-27T08:06:27.618Z,7.82
2022-08-27T08:08:54.602Z,8.85
2022-08-27T08:11:21.323Z,10.48
2022-08-27T08:13:48.136Z,8.30
2022-08-27T08:16:15.442Z,7.13
2022-08-27T08:18:42.335Z,9.02
2022-08-27T08:21:12.761Z,7.65
2022-08-27T08:23:40.476Z,8.73
2022-08-27T08:26:08.211Z,8.07
2022-08-27T08:28:35.931Z,11.25
2022-08-27T08:31:03.108Z,10.13
2022-08-27T08:33:31.377Z,8.25
2022-08-27T08:36:07.978Z,7.95
2022-08-27T08:38:34.716Z,10.63
2022-08-27T08:41:01.978Z,9.30
2022-08-27T08:43:51.562Z,9.13
2022-08-27T08:46:28.610Z,12.88
2022-08-27T08:48:59.840Z,8.90
2022-08-27T08:51:40.938Z,8.60
2022-08-27T08:54:13.878Z,8.57
2022-08-27T08:56:59.492Z,9.70
2022-08-27T08:59:42.879Z,7.70
2022-08-27T09:02:14.361Z,6.70
2022-08-27T09:04:43.109Z,7.10
2022-08-27T09:07:19.023Z,6.85
2022-08-27T09:10:14.439Z,7.10
2022-08-27T09:12:41.450Z,7.70
2022-08-27T09:15:18.698Z,6.72
2022-08-27T09:17:47.722Z,7.88
2022-08-27T09:20:21.541Z,8.18
2022-08-27T09:23:14.284Z,7.30
2022-08-27T09:25:43.351Z,8.45
2022-08-27T09:28:48.050Z,6.97
2022-08-27T09:31:18.307Z,7.15
2022-08-27T09:33:56.416Z,5.75
2022-08-27T09:36:24.491Z,7.60
2022-08-27T09:39:03.583Z,7.93
2022-08-27T09:41:36.240Z,6.13
2022-08-27T09:44:16.267Z,6.13
2022-08-27T09:47:02.242Z,7.22
2022-08-27T09:49:30.089Z,6.28
2022-08-27T09:51:57.584Z,6.75
2022-08-27T09:54:33.867Z,5.75
2022-08-27T09:57:01.266Z,6.68
2022-08-27T09:59:35.175Z,7.22
2022-08-27T10:02:18.075Z,5.13
2022-08-27T10:04:51.025Z,5.20
2022-08-27T10:07:24.403Z,6.60
2022-08-27T10:10:08.338Z,5.53
2022-08-27T10:12:55.833Z,6.10
2022-08-27T10:15:28.362Z,4.93
2022-08-27T10:18:18.681Z,6.30
2022-08-27T10:21:10.422Z,6.20
2022-08-27T10:23:49.799Z,5.80
2022-08-27T10:26:23.611Z,5.57
2022-08-27T10:29:02.626Z,4.45
2022-08-27T10:32:07.365Z,4.55
2022-08-27T10:35:04.206Z,6.28
2022-08-27T10:37:59.332Z,4.78
2022-08-27T10:40:34.432Z,7.03
2022-08-27T10:43:31.350Z,5.15
2022-08-27T10:46:18.917Z,4.60
2022-08-27T10:49:03.685Z,7.53
2022-08-27T10:51:36.530Z,5.82
2022-08-27T10:54:21.190Z,5.40
2022-08-27T10:57:14.550Z,5.28
2022-08-27T11:00:02.055Z,5.93
2022-08-27T11:02:42.170Z,5.55
2022-08-27T11:05:19.820Z,5.88
2022-08-27T11:07:53.319Z,4.70
2022-08-27T11:10:26.358Z,4.88
2022-08-27T11:12:57.731Z,4.70
2022-08-27T11:15:32.550Z,5.40
2022-08-27T11:18:12.606Z,5.50
2022-08-27T11:20:49.431Z,5.13
2022-08-27T11:23:27.124Z,4.85
2022-08-27T11:26:06.794Z,4.53
2022-08-27T11:28:54.926Z,5.70
2022-08-27T11:31:36.974Z,6.15
2022-08-27T11:34:32.048Z,7.10
2022-08-27T11:37:23.367Z,4.75
2022-08-27T11:40:18.692Z,6.82
2022-08-27T11:42:48.835Z,6.45
2022-08-27T11:45:23.356Z,5.57
2022-08-27T11:47:56.317Z,6.03
2022-08-27T11:50:24.115Z,6.15
2022-08-27T11:53:07.287Z,8.38
2022-08-27T11:55:39.365Z,7.45
2022-08-27T11:58:11.490Z,6.78
